createdAt,value
2022-09-16T00:01:30.992Z,19.20
2022-09-16T00:03:59.763Z,19.14
2022-09-16T00:06:31.430Z,19.24
2022-09-16T00:09:02.212Z,19.23
2022-09-16T00:11:34.572Z,19.19
2022-09-16T00:14:03.501Z,19.29
2022-09-16T00:16:32.850Z,19.22
2022-09-16T00:19:03.375Z,19.28
2022-09-16T00:21:33.332Z,19.28
2022-09-16T00:24:01.879Z,19.17
2022-09-16T00:26:31.132Z,19.04
2022-09-16T00:28:59.606Z,18.98
2022-09-16T00:31:28.160Z,18.90
2022-09-16T00:33:56.701Z,18.86
2022-09-16T00:36:25.298Z,18.83
2022-09-16T00:38:56.291Z,18.82
2022-09-16T00:41:26.485Z,18.78
2022-09-16T00:43:58.358Z,18.84
2022-09-16T00:46:33.749Z,18.81
2022-09-16T00:49:05.897Z,18.74
2022-09-16T00:51:35.091Z,18.69
2022-09-16T00:54:09.848Z,18.70
2022-09-16T00:56:41.179Z,18.60
2022-09-16T00:59:13.243Z,18.53
2022-09-16T01:01:44.604Z,18.57
2022-09-16T01:04:17.793Z,18.56
2022-09-16T01:06:46.669Z,18.62
2022-09-16T01:09:17.037Z,18.70
2022-09-16T01:11:45.479Z,18.68
2022-09-16T01:14:32.791Z,18.58
2022-09-16T01:17:10.429Z,18.59
2022-09-16T01:20:09.315Z,18.58
2022-09-16T01:22:53.989Z,18.47
2022-09-16T01:25:34.961Z,18.38
2022-09-16T01:28:31.429Z,18.38
2022-09-16T01:31:14.067Z,18.51
2022-09-16T01:33:52.139Z,18.56
2022-09-16T01:36:32.681Z,18.44
2022-09-16T01:39:13.908Z,18.49
2022-09-16T01:41:55.428Z,18.51
2022-09-16T01:44:29.515Z,18.51
2022-09-16T01:47:05.995Z,18.51
2022-09-16T01:49:44.146Z,18.50
2022-09-16T01:52:25.059Z,18.29
2022-09-16T01:55:01.284Z,18.35
2022-09-16T01:57:36.691Z,18.26
2022-09-16T02:00:10.729Z,18.15
2022-09-16T02:02:46.998Z,18.06
2022-09-16T02:05:19.600Z,18.09
2022-09-16T02:07:53.725Z,18.07
2022-09-16T02:10:27.736Z,18.10
2022-09-16T02:13:01.418Z,18.19
2022-09-16T02:15:31.853Z,18.27
2022-09-16T02:18:06.474Z,18.27
2022-09-16T02:20:39.979Z,18.34
2022-09-16T02:23:16.466Z,18.31
2022-09-16T02:25:48.371Z,18.34
2022-09-16T02:28:21.402Z,18.19
2022-09-16T02:30:53.898Z,18.12
2022-09-16T02:33:25.978Z,18.23
2022-09-16T02:35:56.785Z,18.27
2022-09-16T02:38:30.173Z,18.27
2022-09-16T02:41:00.736Z,18.20
2022-09-16T02:43:30.018Z,18.27
2022-09-16T02:46:09.223Z,18.06
2022-09-16T02:48:49.434Z,18.03
2022-09-16T02:51:25.641Z,18.04
2022-09-16T02:53:58.340Z,18.01
2022-09-16T02:56:32.369Z,17.99
2022-09-16T02:59:02.170Z,17.95
2022-09-16T03:01:34.211Z,17.84
2022-09-16T03:04:04.579Z,18.01
2022-09-16T03:06:36.235Z,18.02
2022-09-16T03:09:08.849Z,18.03
2022-09-16T03:12:00.272Z,18.02
2022-09-16T03:14:45.475Z,17.96
2022-09-16T03:17:28.504Z,17.91
2022-09-16T03:20:11.101Z,17.78
2022-09-16T03:22:49.804Z,17.73
2022-09-16T03:25:29.254Z,17.89
2022-09-16T03:28:04.383Z,17.89
2022-09-16T03:30:37.358Z,17.75
2022-09-16T03:33:11.369Z,17.58
2022-09-16T03:35:46.464Z,17.67
2022-09-16T03:38:15.914Z,17.74
2022-09-16T03:40:45.202Z,17.80
2022-09-16T03:43:16.181Z,17.86
2022-09-16T03:45:45.289Z,17.81
2022-09-16T03:48:14.665Z,17.78
2022-09-16T03:50:44.504Z,17.75
2022-09-16T03:53:12.981Z,17.60
2022-09-16T03:55:41.448Z,17.51
2022-09-16T03:58:09.989Z,17.44
2022-09-16T04:03:43.530Z,17.58
2022-09-16T04:06:13.356Z,17.65
2022-09-16T04:08:44.188Z,17.65
2022-09-16T04:11:12.713Z,17.68
2022-09-16T04:13:41.172Z,17.71
2022-09-16T04:16:09.723Z,17.73
2022-09-16T04:18:38.230Z,17.69
2022-09-16T04:21:06.999Z,17.57
2022-09-16T04:23:37.156Z,17.54
2022-09-16T04:26:06.066Z,17.50
2022-09-16T04:28:34.953Z,17.56
2022-09-16T04:31:05.456Z,17.51
2022-09-16T04:33:36.975Z,17.70
2022-09-16T04:36:06.430Z,17.79
2022-09-16T04:38:36.297Z,17.84
2022-09-16T04:41:06.518Z,17.88
2022-09-16T04:43:35.372Z,17.87
2022-09-16T04:46:04.182Z,17.81
2022-09-16T04:48:32.973Z,17.76
2022-09-16T04:51:06.024Z,17.90
2022-09-16T04:53:36.610Z,17.99
2022-09-16T04:56:07.482Z,17.97
2022-09-16T04:58:36.140Z,17.96
2022-09-16T05:01:12.904Z,18.04
2022-09-16T05:03:42.192Z,18.05
2022-09-16T05:06:15.028Z,17.99
2022-09-16T05:08:48.867Z,18.02
2022-09-16T05:11:19.061Z,18.00
2022-09-16T05:13:47.673Z,18.01
2022-09-16T05:16:17.881Z,17.93
2022-09-16T05:18:48.058Z,17.93
2022-09-16T05:21:19.286Z,17.99
2022-09-16T05:23:50.044Z,18.09
2022-09-16T05:26:20.889Z,18.08
2022-09-16T05:28:50.990Z,18.07
2022-09-16T05:31:22.241Z,17.90
2022-09-16T05:33:57.500Z,17.94
2022-09-16T05:36:28.331Z,17.78
2022-09-16T05:39:22.214Z,17.85
2022-09-16T05:41:47.104Z,17.84
2022-09-16T05:44:16.127Z,17.72
2022-09-16T05:46:44.765Z,17.90
2022-09-16T05:49:13.336Z,17.88
2022-09-16T05:51:42.595Z,17.87
2022-09-16T05:54:12.921Z,17.83
2022-09-16T05:56:41.417Z,17.85
2022-09-16T05:59:13.237Z,17.86
2022-09-16T06:01:41.990Z,17.70
2022-09-16T06:04:13.051Z,17.50
2022-09-16T06:06:43.170Z,17.54
2022-09-16T06:09:14.981Z,17.50
2022-09-16T06:11:47.644Z,17.51
2022-09-16T06:14:17.698Z,17.57
2022-09-16T06:16:46.971Z,17.66
2022-09-16T06:19:17.365Z,17.76
2022-09-16T06:21:46.774Z,17.75
2022-09-16T06:24:19.618Z,18.00
2022-09-16T06:26:49.618Z,18.15
2022-09-16T06:29:18.808Z,18.36
2022-09-16T06:31:47.833Z,18.45
2022-09-16T06:34:18.713Z,18.54
2022-09-16T06:36:47.748Z,18.45
2022-09-16T06:39:18.367Z,18.62
2022-09-16T06:41:47.095Z,18.76
2022-09-16T06:44:15.721Z,18.86
2022-09-16T06:46:44.325Z,18.81
2022-09-16T06:49:13.276Z,18.88
2022-09-16T06:51:41.749Z,19.07
2022-09-16T06:54:12.121Z,19.00
2022-09-16T06:56:42.149Z,19.28
2022-09-16T06:59:14.405Z,19.43
2022-09-16T07:01:43.228Z,19.45
2022-09-16T07:04:13.493Z,19.68
2022-09-16T07:07:08.101Z,19.92
2022-09-16T07:09:31.405Z,19.93
2022-09-16T07:12:01.769Z,20.05
2022-09-16T07:14:32.694Z,20.18
2022-09-16T07:17:02.147Z,20.08
2022-09-16T07:19:30.731Z,20.09
2022-09-16T07:21:59.585Z,20.30
2022-09-16T07:24:28.470Z,20.56
2022-09-16T07:26:56.935Z,21.15
2022-09-16T07:29:27.762Z,21.78
2022-09-16T07:31:56.186Z,22.06
2022-09-16T07:34:24.649Z,22.31
2022-09-16T07:36:53.258Z,22.56
2022-09-16T07:39:21.719Z,22.78
2022-09-16T07:41:50.175Z,23.77
2022-09-16T07:44:20.311Z,25.58
2022-09-16T07:46:51.465Z,27.46
2022-09-16T07:49:20.801Z,30.29
2022-09-16T07:51:49.778Z,31.14
2022-09-16T07:54:20.381Z,32.62
2022-09-16T07:56:49.130Z,33.69
2022-09-16T07:59:19.634Z,35.35
2022-09-16T08:01:51.118Z,36.26
2022-09-16T08:04:21.041Z,37.40
2022-09-16T08:06:49.946Z,37.21
2022-09-16T08:12:11.035Z,35.66
2022-09-16T08:14:40.975Z,36.12
2022-09-16T08:17:11.434Z,35.20
2022-09-16T08:19:41.970Z,35.93
2022-09-16T08:22:10.785Z,34.89
2022-09-16T08:24:40.071Z,35.88
2022-09-16T08:27:08.564Z,35.95
2022-09-16T08:29:37.045Z,35.85
2022-09-16T08:32:05.750Z,35.55
2022-09-16T08:34:35.891Z,33.37
2022-09-16T08:37:04.363Z,32.00
2022-09-16T08:39:32.868Z,31.27
2022-09-16T08:42:33.105Z,30.70
2022-09-16T08:45:20.794Z,31.15
2022-09-16T08:48:08.296Z,33.18
2022-09-16T08:50:44.109Z,34.67
2022-09-16T08:53:37.294Z,37.05
2022-09-16T08:56:20.085Z,38.72
2022-09-16T08:58:55.116Z,37.43
2022-09-16T09:01:32.376Z,35.90
2022-09-16T09:04:04.590Z,36.25
2022-09-16T09:06:52.586Z,38.08
2022-09-16T09:09:50.466Z,40.10
2022-09-16T09:12:36.237Z,39.45
2022-09-16T09:15:43.045Z,39.77
2022-09-16T09:18:34.890Z,39.99
2022-09-16T09:21:16.519Z,40.22
2022-09-16T09:24:06.932Z,40.51
2022-09-16T09:26:45.237Z,40.80
2022-09-16T09:29:46.791Z,40.66
2022-09-16T09:32:27.048Z,38.49
2022-09-16T09:35:15.779Z,38.65
2022-09-16T09:37:55.871Z,39.67
2022-09-16T09:40:34.867Z,40.32
2022-09-16T09:43:10.896Z,39.64
2022-09-16T09:45:44.986Z,40.89
2022-09-16T09:48:21.125Z,41.62
2022-09-16T09:50:51.061Z,40.79
2022-09-16T09:53:25.259Z,41.74
2022-09-16T09:56:01.730Z,42.07
2022-09-16T09:58:38.423Z,43.01
2022-09-16T10:01:07.172Z,43.64
2022-09-16T10:03:37.240Z,42.01
2022-09-16T10:06:06.393Z,43.15
2022-09-16T10:08:43.251Z,42.84
2022-09-16T10:11:20.918Z,44.85
2022-09-16T10:13:51.511Z,44.41
2022-09-16T10:16:21.950Z,44.82
2022-09-16T10:18:58.457Z,44.31
2022-09-16T10:21:27.780Z,44.10
2022-09-16T10:23:58.197Z,45.51
2022-09-16T10:26:29.667Z,45.18
2022-09-16T10:29:01.206Z,45.33
2022-09-16T10:31:36.267Z,45.69
2022-09-16T10:34:06.897Z,44.40
2022-09-16T10:36:36.916Z,44.86
2022-09-16T10:39:06.453Z,45.76
2022-09-16T10:41:45.841Z,45.91
2022-09-16T10:44:17.695Z,45.68
2022-09-16T10:46:55.382Z,46.44
2022-09-16T10:49:34.118Z,46.12
2022-09-16T10:52:11.124Z,45.74
2022-09-16T10:54:39.626Z,46.19
2022-09-16T10:57:24.574Z,45.61
2022-09-16T11:00:02.299Z,46.02
2022-09-16T11:03:16.448Z,46.93
2022-09-16T11:05:55.549Z,46.38
2022-09-16T11:08:39.490Z,44.38
2022-09-16T11:11:27.246Z,45.79
2022-09-16T11:14:04.994Z,44.45
2022-09-16T11:16:55.278Z,41.55
2022-09-16T11:19:33.716Z,41.94
2022-09-16T11:22:13.576Z,43.56
2022-09-16T11:24:57.230Z,44.79
2022-09-16T11:27:36.371Z,41.47
2022-09-16T11:30:14.953Z,41.51
2022-09-16T11:33:02.751Z,43.07
2022-09-16T11:35:45.570Z,43.85
2022-09-16T11:38:23.434Z,44.42
2022-09-16T11:40:59.586Z,44.47
2022-09-16T11:43:54.300Z,44.81
2022-09-16T11:46:30.802Z,44.88
2022-09-16T11:49:08.882Z,45.69
2022-09-16T11:51:52.496Z,46.08
2022-09-16T11:54:35.443Z,46.54
2022-09-16T11:57:08.181Z,45.71
2022-09-16T11:59:42.908Z,43.91
2022-09-16T12:02:21.811Z,45.19
2022-09-16T12:04:58.151Z,45.00
2022-09-16T12:07:32.018Z,45.20
2022-09-16T12:10:06.806Z,44.79
2022-09-16T12:12:40.448Z,43.24
2022-09-16T12:15:18.917Z,42.73
2022-09-16T12:17:53.927Z,41.11
2022-09-16T12:20:26.103Z,40.13
2022-09-16T12:23:02.667Z,38.47
2022-09-16T12:25:38.159Z,37.05
2022-09-16T12:28:14.356Z,35.98
2022-09-16T12:30:46.594Z,35.22
2022-09-16T12:33:23.019Z,34.77
2022-09-16T12:35:57.709Z,34.47
2022-09-16T12:38:26.740Z,34.07
2022-09-16T12:41:10.887Z,34.11
2022-09-16T12:44:17.474Z,33.73
2022-09-16T12:47:28.769Z,33.72
2022-09-16T12:50:25.741Z,33.78
2022-09-16T12:53:18.512Z,33.86
2022-09-16T12:56:04.265Z,33.42
2022-09-16T12:58:50.123Z,33.18
2022-09-16T13:01:24.432Z,33.16
2022-09-16T13:03:58.088Z,33.21
2022-09-16T13:06:31.378Z,33.10
2022-09-16T13:09:16.536Z,33.10
2022-09-16T13:12:32.032Z,33.23
2022-09-16T13:14:47.948Z,33.81
2022-09-16T13:17:17.300Z,33.73
2022-09-16T13:19:51.175Z,33.53
2022-09-16T13:22:27.483Z,33.39
2022-09-16T13:25:06.697Z,33.62
2022-09-16T13:27:38.041Z,33.68
2022-09-16T13:30:14.741Z,33.65
2022-09-16T13:32:46.406Z,33.56
2022-09-16T13:35:36.544Z,33.57
2022-09-16T13:38:23.873Z,33.72
2022-09-16T13:41:00.648Z,33.05
2022-09-16T13:43:35.037Z,32.70
2022-09-16T13:46:07.152Z,32.74
2022-09-16T13:51:28.124Z,32.91
2022-09-16T13:54:02.910Z,33.07
2022-09-16T13:56:47.423Z,32.95
2022-09-16T13:59:30.123Z,32.54
2022-09-16T14:02:09.477Z,32.88
2022-09-16T14:05:00.270Z,32.66
2022-09-16T14:07:40.732Z,32.76
2022-09-16T14:10:18.411Z,32.89
2022-09-16T14:12:58.142Z,32.79
2022-09-16T14:15:28.673Z,32.84
2022-09-16T14:18:01.676Z,33.01
2022-09-16T14:20:31.065Z,32.60
2022-09-16T14:23:04.700Z,32.62
2022-09-16T14:25:36.396Z,32.58
2022-09-16T14:28:26.782Z,32.41
2022-09-16T14:30:57.263Z,32.73
2022-09-16T14:33:31.314Z,33.02
2022-09-16T14:36:01.748Z,32.57
2022-09-16T14:38:46.427Z,32.71
2022-09-16T14:41:25.939Z,32.60
2022-09-16T14:43:57.385Z,32.59
2022-09-16T14:46:26.978Z,32.41
2022-09-16T14:48:55.553Z,32.20
2022-09-16T14:51:27.853Z,32.32
2022-09-16T14:54:12.399Z,32.16
2022-09-16T14:56:43.316Z,32.00
2022-09-16T14:59:14.327Z,31.65
2022-09-16T15:01:43.649Z,31.74
2022-09-16T15:04:19.705Z,31.90
2022-09-16T15:06:53.923Z,31.60
2022-09-16T15:09:33.966Z,31.44
2022-09-16T15:12:12.170Z,31.40
2022-09-16T15:14:40.874Z,31.39
2022-09-16T15:17:09.408Z,31.16
2022-09-16T15:19:45.828Z,31.26
2022-09-16T15:22:16.258Z,30.86
2022-09-16T15:24:49.613Z,30.68
2022-09-16T15:27:26.401Z,30.67
2022-09-16T15:29:59.421Z,30.85
2022-09-16T15:32:31.927Z,30.53
2022-09-16T15:35:12.517Z,30.56
2022-09-16T15:37:41.042Z,30.43
2022-09-16T15:40:23.161Z,30.28
2022-09-16T15:43:06.067Z,30.10
2022-09-16T15:45:34.860Z,30.12
2022-09-16T15:48:07.547Z,29.85
2022-09-16T15:50:42.417Z,29.88
2022-09-16T15:53:14.127Z,29.53
2022-09-16T15:55:52.944Z,29.48
2022-09-16T15:58:39.607Z,29.41
2022-09-16T16:01:13.536Z,29.48
2022-09-16T16:03:57.696Z,29.66
2022-09-16T16:06:49.562Z,29.59
2022-09-16T16:09:45.081Z,29.34
2022-09-16T16:12:16.515Z,29.35
2022-09-16T16:14:46.721Z,28.91
2022-09-16T16:17:17.940Z,28.87
2022-09-16T16:19:48.029Z,28.83
2022-09-16T16:22:17.637Z,28.82
2022-09-16T16:24:46.221Z,28.69
2022-09-16T16:27:14.664Z,28.52
2022-09-16T16:29:43.232Z,28.54
2022-09-16T16:32:14.993Z,28.58
2022-09-16T16:34:45.550Z,28.58
2022-09-16T16:37:40.151Z,28.35
2022-09-16T16:40:07.190Z,28.44
2022-09-16T16:42:35.941Z,28.47
2022-09-16T16:45:05.418Z,28.51
2022-09-16T16:47:35.319Z,28.46
2022-09-16T16:50:03.753Z,28.44
2022-09-16T16:52:37.618Z,28.24
2022-09-16T16:55:06.878Z,28.14
2022-09-16T16:57:35.343Z,27.99
2022-09-16T17:00:04.573Z,28.05
2022-09-16T17:02:34.505Z,28.11
2022-09-16T17:05:03.089Z,28.09
2022-09-16T17:07:31.710Z,27.90
2022-09-16T17:10:00.269Z,27.94
2022-09-16T17:12:29.168Z,27.77
2022-09-16T17:14:58.245Z,27.57
2022-09-16T17:17:31.436Z,27.72
2022-09-16T17:20:01.905Z,27.60
2022-09-16T17:22:31.415Z,27.72
2022-09-16T17:24:59.919Z,27.77
2022-09-16T17:27:29.802Z,27.71
2022-09-16T17:30:01.141Z,27.69
2022-09-16T17:32:29.692Z,27.56
2022-09-16T17:34:58.124Z,27.31
2022-09-16T17:37:28.309Z,27.42
2022-09-16T17:39:57.002Z,27.39
2022-09-16T17:42:25.627Z,27.23
2022-09-16T17:44:54.104Z,27.17
2022-09-16T17:47:22.607Z,27.20
2022-09-16T17:49:51.157Z,27.15
2022-09-16T17:52:19.635Z,26.93
2022-09-16T17:54:49.555Z,26.76
2022-09-16T17:57:18.272Z,26.54
2022-09-16T17:59:46.705Z,26.36
2022-09-16T18:02:15.877Z,26.17
2022-09-16T18:04:44.507Z,26.00
2022-09-16T18:07:13.022Z,25.97
2022-09-16T18:09:42.152Z,25.79
2022-09-16T18:12:12.304Z,25.69
2022-09-16T18:14:40.778Z,25.52
2022-09-16T18:17:09.306Z,25.46
2022-09-16T18:19:37.813Z,25.37
2022-09-16T18:22:06.249Z,25.30
2022-09-16T18:24:34.767Z,25.24
2022-09-16T18:27:03.207Z,25.06
2022-09-16T18:29:33.063Z,24.84
2022-09-16T18:32:01.546Z,24.72
2022-09-16T18:34:33.650Z,24.63
2022-09-16T18:37:02.831Z,24.49
2022-09-16T18:39:31.707Z,24.28
2022-09-16T18:42:00.134Z,24.20
2022-09-16T18:44:28.698Z,24.12
2022-09-16T18:46:58.773Z,23.96
2022-09-16T18:49:29.175Z,23.77
2022-09-16T18:51:57.944Z,23.67
2022-09-16T18:54:29.242Z,23.62
2022-09-16T18:56:59.245Z,23.45
2022-09-16T18:59:29.627Z,23.30
2022-09-16T19:02:01.498Z,23.16
2022-09-16T19:04:32.643Z,23.10
2022-09-16T19:07:08.195Z,23.01
2022-09-16T19:09:39.851Z,22.74
2022-09-16T19:12:10.195Z,22.85
2022-09-16T19:14:38.956Z,22.78
2022-09-16T19:17:09.095Z,22.67
2022-09-16T19:19:37.886Z,22.59
2022-09-16T19:22:06.473Z,22.51
2022-09-16T19:24:35.642Z,22.38
2022-09-16T19:27:04.172Z,22.36
2022-09-16T19:29:33.461Z,22.31
2022-09-16T19:32:02.249Z,22.29
2022-09-16T19:34:32.174Z,22.27
2022-09-16T19:37:01.061Z,22.25
2022-09-16T19:39:29.613Z,22.27
2022-09-16T19:42:03.221Z,22.15
2022-09-16T19:44:32.165Z,22.13
2022-09-16T19:47:01.469Z,22.18
2022-09-16T19:49:31.285Z,22.18
2022-09-16T19:51:59.756Z,22.22
2022-09-16T19:54:28.237Z,22.25
2022-09-16T19:56:56.697Z,22.22
2022-09-16T19:59:25.198Z,22.14
2022-09-16T20:01:54.176Z,22.04
2022-09-16T20:04:22.618Z,22.02
2022-09-16T20:06:52.514Z,22.11
2022-09-16T20:09:21.078Z,22.07
2022-09-16T20:11:50.499Z,21.95
2022-09-16T20:14:21.169Z,22.09
2022-09-16T20:16:50.887Z,21.92
2022-09-16T20:19:21.130Z,22.10
2022-09-16T20:21:50.119Z,22.07
2022-09-16T20:24:21.901Z,22.01
2022-09-16T20:26:51.837Z,22.06
2022-09-16T20:29:21.355Z,21.90
2022-09-16T20:31:52.722Z,21.89
2022-09-16T20:34:24.500Z,21.99
2022-09-16T20:36:53.528Z,21.97
2022-09-16T20:39:23.494Z,21.92
2022-09-16T20:41:52.860Z,21.95
2022-09-16T20:44:21.847Z,21.93
2022-09-16T20:46:50.407Z,21.85
2022-09-16T20:49:23.132Z,21.84
2022-09-16T20:51:52.125Z,21.85
2022-09-16T20:54:20.594Z,21.82
2022-09-16T20:56:50.640Z,21.79
2022-09-16T20:59:20.720Z,21.72
2022-09-16T21:01:50.133Z,21.71
2022-09-16T21:04:20.943Z,21.71
2022-09-16T21:06:49.434Z,21.71
2022-09-16T21:09:19.305Z,21.57
2022-09-16T21:11:48.507Z,21.63
2022-09-16T21:14:21.649Z,21.59
2022-09-16T21:16:51.750Z,21.57
2022-09-16T21:19:20.338Z,21.58
2022-09-16T21:21:48.800Z,21.56
2022-09-16T21:24:18.070Z,21.49
2022-09-16T21:26:47.236Z,21.50
2022-09-16T21:29:20.369Z,21.56
2022-09-16T21:31:50.066Z,21.54
2022-09-16T21:34:20.392Z,21.56
2022-09-16T21:36:49.841Z,21.54
2022-09-16T21:39:20.147Z,21.44
2022-09-16T21:41:49.333Z,21.53
2022-09-16T21:44:20.050Z,21.42
2022-09-16T21:46:49.819Z,21.45
2022-09-16T21:49:22.610Z,21.42
2022-09-16T21:51:52.615Z,21.42
2022-09-16T21:54:21.505Z,21.35
2022-09-16T21:56:51.173Z,21.04
2022-09-16T21:59:21.686Z,21.11
2022-09-16T22:01:51.162Z,21.12
2022-09-16T22:04:22.030Z,20.98
2022-09-16T22:06:50.825Z,20.99
2022-09-16T22:09:19.454Z,21.12
2022-09-16T22:11:48.404Z,21.17
2022-09-16T22:14:17.408Z,21.06
2022-09-16T22:16:47.246Z,21.12
2022-09-16T22:19:18.110Z,21.12
2022-09-16T22:21:48.298Z,21.18
2022-09-16T22:24:20.575Z,21.06
2022-09-16T22:26:50.709Z,20.97
2022-09-16T22:29:19.154Z,20.74
2022-09-16T22:31:49.388Z,20.64
2022-09-16T22:34:18.028Z,20.77
2022-09-16T22:36:46.517Z,20.68
2022-09-16T22:39:16.966Z,20.78
2022-09-16T22:41:45.584Z,20.77
2022-09-16T22:44:14.434Z,20.61
2022-09-16T22:46:44.616Z,20.79
2022-09-16T22:49:15.807Z,20.73
2022-09-16T22:51:44.855Z,20.79
2022-09-16T22:54:14.218Z,20.81
2022-09-16T22:56:43.802Z,20.84
2022-09-16T22:59:18.302Z,20.84
2022-09-16T23:01:47.289Z,20.59
2022-09-16T23:04:17.312Z,20.69
2022-09-16T23:06:45.866Z,20.78
2022-09-16T23:09:15.427Z,20.89
2022-09-16T23:11:43.853Z,20.82
2022-09-16T23:14:15.266Z,20.79
2022-09-16T23:16:43.709Z,20.80
2022-09-16T23:19:13.097Z,20.82
2022-09-16T23:21:43.925Z,20.83
2022-09-16T23:24:15.927Z,20.81
2022-09-16T23:26:45.005Z,20.73
2022-09-16T23:29:15.537Z,20.80
2022-09-16T23:31:45.612Z,20.83
2022-09-16T23:34:16.753Z,20.75
2022-09-16T23:36:47.087Z,20.72
2022-09-16T23:39:17.411Z,20.54
2022-09-16T23:41:46.409Z,20.31
2022-09-16T23:44:15.982Z,20.35
2022-09-16T23:46:44.792Z,20.37
2022-09-16T23:49:17.165Z,20.47
2022-09-16T23:51:47.502Z,20.56
2022-09-16T23:54:17.389Z,20.66
2022-09-16T23:56:46.725Z,20.71
2022-09-16T23:59:15.148Z,20.71
